Aegean Orion — SVA2487 — position and weather

sailwx.info

Track history (hours):
 
Tides and Currents Weather Stations Pressure Air Temp Water Temp Dewpoint Dewpoint Depression Visibility Wind Speed Wind Dir Waves Ship Positions

Aegean Orion

Last reported at 2016-Feb-09 03:34 UTC. Time now 2016-Feb-09 20:41 UTC.
Position N 38°02' E 023°32'.

; draft 2.4 m.

Type: Ship. MMSI: 239550200.

Date/timePositionNaut miles runAvg speedWind from/ knotsBaromVisibWave heightAir tempDewpointWater temp
2016-Feb-09 03:34N 38°02' E 023°32'3 2.6
2016-Feb-09 02:33N 38°02' E 023°36'0 0.0
2016-Feb-09 01:33N 38°02' E 023°36'0 0.0
2016-Feb-09 00:33N 38°02' E 023°36'0 0.0
2016-Feb-08 23:33N 38°02' E 023°36'3 2.6
2016-Feb-08 22:33N 38°02' E 023°32'7 7.3
2016-Feb-08 21:33N 37°58' E 023°25'6 5.9
2016-Feb-08 20:34N 37°52' E 023°28'9 9.0
2016-Feb-08 19:33N 37°56' E 023°38'1 0.5
2016-Feb-08 18:34N 37°57' E 023°38'2 1.6
2016-Feb-08 17:33N 37°56' E 023°37'1 1.1
2016-Feb-08 16:33N 37°57' E 023°35'5 4.8
2016-Feb-08 15:33N 38°01' E 023°32'1 0.0
2016-Feb-06 21:18N 38°02' E 023°31'6 8.0
2016-Feb-06 20:34N 37°59' E 023°25'6 6.3
2016-Feb-06 19:34N 37°52' E 023°26'8 8.3
2016-Feb-06 18:33N 37°55' E 023°36'3 2.7
2016-Feb-06 17:33N 37°57' E 023°38'0 0.0
2016-Feb-06 16:33N 37°57' E 023°38'1 0.7
2016-Feb-06 15:33N 37°57' E 023°38'1 0.5
2016-Feb-06 14:33N 37°56' E 023°37'7 7.2
2016-Feb-06 13:33N 38°02' E 023°31'0 0.4
2016-Feb-06 12:33N 38°02' E 023°31'0 0.0
2016-Feb-06 11:33N 38°02' E 023°31'0 0.0
2016-Feb-06 10:33N 38°02' E 023°31'1 0.6
2016-Feb-06 09:33N 38°02' E 023°31'0 0.0
2016-Feb-06 08:33N 38°02' E 023°31'0 0.0
2016-Feb-06 07:34N 38°02' E 023°31'0 0.0
2016-Feb-06 06:33N 38°02' E 023°31'0 0.0
2016-Feb-06 05:33N 38°02' E 023°31'1 0.0
2016-Feb-04 06:34N 38°02' E 023°32'5 5.1
2016-Feb-04 05:34N 37°57' E 023°34'0 0.3
2016-Feb-04 04:33N 37°57' E 023°34'0 0.0
2016-Feb-04 03:33N 37°57' E 023°34'0 0.0
2016-Feb-04 02:33N 37°57' E 023°34'0 0.0
2016-Feb-04 01:33N 37°57' E 023°34'0 0.1
2016-Feb-04 00:33N 37°57' E 023°34'0 0.0
2016-Feb-03 23:33N 37°57' E 023°34'0 0.0
2016-Feb-03 22:33N 37°57' E 023°34'0 0.0
2016-Feb-03 21:33N 37°57' E 023°34'1 1.1
2016-Feb-03 20:33N 37°57' E 023°36'2 2.3
2016-Feb-03 19:33N 37°57' E 023°38'0 0.0
2016-Feb-03 18:33N 37°57' E 023°38'2 2.1
2016-Feb-03 17:33N 37°57' E 023°36'1 1.2
2016-Feb-03 16:34N 37°57' E 023°34'0 0.3
2016-Feb-03 15:33N 37°57' E 023°35'3 3.0
2016-Feb-03 14:33N 37°57' E 023°38'0 0.0
2016-Feb-03 13:33N 37°57' E 023°38'3 2.6
2016-Feb-03 12:33N 37°57' E 023°35'6 5.9
2016-Feb-03 11:34N 38°02' E 023°32'0 0.0
2016-Feb-02 14:33N 38°02' E 023°32'1 0.7
2016-Feb-02 13:34N 38°02' E 023°31'0 0.0
2016-Feb-02 12:33N 38°02' E 023°31'0 0.0
2016-Feb-02 11:34N 38°02' E 023°31'0 0.0
2016-Feb-02 10:33N 38°02' E 023°31'0 0.0
2016-Feb-02 09:31N 38°02' E 023°31'0 0.0
2016-Feb-02 08:32N 38°02' E 023°31'0 0.0
2016-Feb-02 07:34N 38°02' E 023°31'0 0.3
2016-Feb-02 06:33N 38°02' E 023°31'0 0.1
2016-Feb-02 05:34N 38°02' E 023°31'  
Track history (hours):
 
Tides and Currents Weather Stations Pressure Air Temp Water Temp Dewpoint Dewpoint Depression Visibility Wind Speed Wind Dir Waves Ship Positions

Aegean Orion

Last reported at 2016-Feb-09 03:34 UTC. Time now 2016-Feb-09 20:41 UTC.
Position N 38°02' E 023°32'.

; draft 2.4 m.

Type: Ship. MMSI: 239550200.

Date/timePositionNaut miles runAvg speedWind from/ knotsBaromVisibWave heightAir tempDewpointWater temp
2016-Feb-09 03:34N 38°02' E 023°32'3 2.6
2016-Feb-09 02:33N 38°02' E 023°36'0 0.0
2016-Feb-09 01:33N 38°02' E 023°36'0 0.0
2016-Feb-09 00:33N 38°02' E 023°36'0 0.0
2016-Feb-08 23:33N 38°02' E 023°36'3 2.6
2016-Feb-08 22:33N 38°02' E 023°32'7 7.3
2016-Feb-08 21:33N 37°58' E 023°25'6 5.9
2016-Feb-08 20:34N 37°52' E 023°28'9 9.0
2016-Feb-08 19:33N 37°56' E 023°38'1 0.5
2016-Feb-08 18:34N 37°57' E 023°38'2 1.6
2016-Feb-08 17:33N 37°56' E 023°37'1 1.1
2016-Feb-08 16:33N 37°57' E 023°35'5 4.8
2016-Feb-08 15:33N 38°01' E 023°32'1 0.0
2016-Feb-06 21:18N 38°02' E 023°31'6 8.0
2016-Feb-06 20:34N 37°59' E 023°25'6 6.3
2016-Feb-06 19:34N 37°52' E 023°26'8 8.3
2016-Feb-06 18:33N 37°55' E 023°36'3 2.7
2016-Feb-06 17:33N 37°57' E 023°38'0 0.0
2016-Feb-06 16:33N 37°57' E 023°38'1 0.7
2016-Feb-06 15:33N 37°57' E 023°38'1 0.5
2016-Feb-06 14:33N 37°56' E 023°37'7 7.2
2016-Feb-06 13:33N 38°02' E 023°31'0 0.4
2016-Feb-06 12:33N 38°02' E 023°31'0 0.0
2016-Feb-06 11:33N 38°02' E 023°31'0 0.0
2016-Feb-06 10:33N 38°02' E 023°31'1 0.6
2016-Feb-06 09:33N 38°02' E 023°31'0 0.0
2016-Feb-06 08:33N 38°02' E 023°31'0 0.0
2016-Feb-06 07:34N 38°02' E 023°31'0 0.0
2016-Feb-06 06:33N 38°02' E 023°31'0 0.0
2016-Feb-06 05:33N 38°02' E 023°31'1 0.0
2016-Feb-04 06:34N 38°02' E 023°32'5 5.1
2016-Feb-04 05:34N 37°57' E 023°34'0 0.3
2016-Feb-04 04:33N 37°57' E 023°34'0 0.0
2016-Feb-04 03:33N 37°57' E 023°34'0 0.0
2016-Feb-04 02:33N 37°57' E 023°34'0 0.0
2016-Feb-04 01:33N 37°57' E 023°34'0 0.1
2016-Feb-04 00:33N 37°57' E 023°34'0 0.0
2016-Feb-03 23:33N 37°57' E 023°34'0 0.0
2016-Feb-03 22:33N 37°57' E 023°34'0 0.0
2016-Feb-03 21:33N 37°57' E 023°34'1 1.1
2016-Feb-03 20:33N 37°57' E 023°36'2 2.3
2016-Feb-03 19:33N 37°57' E 023°38'0 0.0
2016-Feb-03 18:33N 37°57' E 023°38'2 2.1
2016-Feb-03 17:33N 37°57' E 023°36'1 1.2
2016-Feb-03 16:34N 37°57' E 023°34'0 0.3
2016-Feb-03 15:33N 37°57' E 023°35'3 3.0
2016-Feb-03 14:33N 37°57' E 023°38'0 0.0
2016-Feb-03 13:33N 37°57' E 023°38'3 2.6
2016-Feb-03 12:33N 37°57' E 023°35'6 5.9
2016-Feb-03 11:34N 38°02' E 023°32'0 0.0
2016-Feb-02 14:33N 38°02' E 023°32'1 0.7
2016-Feb-02 13:34N 38°02' E 023°31'0 0.0
2016-Feb-02 12:33N 38°02' E 023°31'0 0.0
2016-Feb-02 11:34N 38°02' E 023°31'0 0.0
2016-Feb-02 10:33N 38°02' E 023°31'0 0.0
2016-Feb-02 09:31N 38°02' E 023°31'0 0.0
2016-Feb-02 08:32N 38°02' E 023°31'0 0.0
2016-Feb-02 07:34N 38°02' E 023°31'0 0.3
2016-Feb-02 06:33N 38°02' E 023°31'0 0.1
2016-Feb-02 05:34N 38°02' E 023°31'  

Dump ship's entire track history